createdAt,value
2017-09-27T00:00:01.164Z,6.93
2017-09-27T00:02:29.532Z,12.03
2017-09-27T00:04:58.632Z,8.33
2017-09-27T00:07:27.768Z,13.07
2017-09-27T00:09:56.105Z,8.40
2017-09-27T00:12:25.216Z,9.47
2017-09-27T00:14:54.355Z,8.70
2017-09-27T00:17:22.688Z,8.07
2017-09-27T00:19:51.831Z,8.25
2017-09-27T00:22:20.176Z,8.20
2017-09-27T00:24:48.524Z,6.70
2017-09-27T00:27:16.883Z,6.30
2017-09-27T00:29:45.215Z,6.90
2017-09-27T00:32:14.352Z,7.07
2017-09-27T00:34:42.679Z,5.60
2017-09-27T00:37:11.783Z,5.53
2017-09-27T00:39:41.540Z,5.73
2017-09-27T00:42:09.888Z,7.13
2017-09-27T00:44:38.253Z,7.33
2017-09-27T00:47:07.351Z,8.03
2017-09-27T00:49:36.459Z,9.63
2017-09-27T00:52:05.591Z,6.63
2017-09-27T00:54:33.931Z,6.27
2017-09-27T00:57:03.073Z,5.47
2017-09-27T00:59:31.416Z,6.77
2017-09-27T01:02:00.522Z,6.80
2017-09-27T01:04:28.876Z,5.70
2017-09-27T01:06:57.999Z,5.63
2017-09-27T01:09:26.368Z,6.73
2017-09-27T01:11:55.472Z,5.60
2017-09-27T01:14:24.581Z,6.27
2017-09-27T01:16:52.944Z,5.17
2017-09-27T01:19:22.041Z,5.27
2017-09-27T01:21:51.176Z,8.30
2017-09-27T01:24:19.520Z,7.50
2017-09-27T01:26:48.635Z,6.73
2017-09-27T01:29:17.008Z,6.80
2017-09-27T01:31:45.353Z,8.37
2017-09-27T01:34:13.726Z,7.50
2017-09-27T01:36:42.077Z,7.73
2017-09-27T01:39:10.444Z,5.63
2017-09-27T01:41:38.778Z,5.43
2017-09-27T01:44:07.125Z,6.70
2017-09-27T01:46:35.599Z,6.10
2017-09-27T01:49:03.931Z,5.27
2017-09-27T01:51:32.291Z,5.30
2017-09-27T01:54:00.640Z,7.40
2017-09-27T01:56:29.001Z,7.47
2017-09-27T01:58:57.334Z,6.20
2017-09-27T02:01:25.709Z,6.87
2017-09-27T02:03:54.045Z,4.85
2017-09-27T02:06:22.443Z,6.80
2017-09-27T02:08:50.815Z,7.30
2017-09-27T02:11:19.154Z,6.40
2017-09-27T02:13:47.520Z,6.50
2017-09-27T02:16:15.876Z,6.20
2017-09-27T02:18:44.260Z,7.10
2017-09-27T02:21:12.599Z,6.03
2017-09-27T02:23:41.700Z,5.90
2017-09-27T02:26:10.055Z,6.20
2017-09-27T02:28:39.167Z,5.97
2017-09-27T02:31:08.296Z,6.10
2017-09-27T02:33:36.635Z,6.20
2017-09-27T02:36:05.743Z,5.80
2017-09-27T02:38:34.880Z,7.30
2017-09-27T02:41:03.212Z,4.93
2017-09-27T02:43:32.393Z,6.53
2017-09-27T02:46:00.735Z,6.87
2017-09-27T02:48:29.067Z,5.30
2017-09-27T02:50:57.432Z,5.30
2017-09-27T02:53:25.771Z,5.03
2017-09-27T02:55:54.141Z,4.93
2017-09-27T02:58:22.476Z,5.32
2017-09-27T03:00:50.819Z,4.77
2017-09-27T03:03:19.195Z,4.20
2017-09-27T03:05:47.529Z,5.17
2017-09-27T03:08:15.887Z,4.47
2017-09-27T03:10:44.236Z,4.77
2017-09-27T03:13:12.580Z,5.00
2017-09-27T03:15:41.818Z,5.63
2017-09-27T03:18:10.147Z,5.20
2017-09-27T03:20:39.276Z,6.90
2017-09-27T03:23:07.605Z,6.67
2017-09-27T03:25:35.978Z,4.80
2017-09-27T03:28:04.324Z,9.00
2017-09-27T03:30:32.726Z,6.37
2017-09-27T03:33:01.060Z,5.77
2017-09-27T03:35:30.184Z,5.97
2017-09-27T03:37:58.519Z,5.12
2017-09-27T03:40:26.897Z,4.07
2017-09-27T03:42:55.236Z,5.60
2017-09-27T03:45:23.594Z,6.27
2017-09-27T03:47:51.959Z,6.10
2017-09-27T03:50:21.096Z,10.97
2017-09-27T03:52:49.433Z,4.30
2017-09-27T03:55:18.536Z,5.23
2017-09-27T03:57:47.665Z,5.60
2017-09-27T04:00:15.995Z,5.07
2017-09-27T04:02:44.355Z,5.10
2017-09-27T04:05:12.687Z,5.20
2017-09-27T04:07:41.024Z,7.07
2017-09-27T04:10:09.390Z,6.30
2017-09-27T04:12:37.734Z,5.10
2017-09-27T04:15:06.092Z,5.60
2017-09-27T04:17:35.193Z,6.53
2017-09-27T04:20:04.305Z,8.82
2017-09-27T04:22:32.668Z,5.00
2017-09-27T04:25:01.776Z,6.63
2017-09-27T04:27:30.912Z,5.70
2017-09-27T04:29:59.260Z,6.85
2017-09-27T04:32:27.603Z,7.70
2017-09-27T04:34:55.964Z,5.90
2017-09-27T04:37:24.298Z,5.20
2017-09-27T04:39:53.429Z,4.87
2017-09-27T04:42:21.769Z,5.43
2017-09-27T04:44:50.870Z,5.07
2017-09-27T04:47:19.998Z,5.70
2017-09-27T04:49:49.375Z,5.97
2017-09-27T04:52:18.524Z,5.57
2017-09-27T04:54:46.864Z,6.50
2017-09-27T04:57:15.196Z,5.77
2017-09-27T04:59:43.555Z,6.63
2017-09-27T05:02:11.900Z,6.57
2017-09-27T05:04:40.257Z,6.50
2017-09-27T05:07:09.381Z,6.28
2017-09-27T05:09:37.716Z,7.13
2017-09-27T05:12:06.081Z,6.30
2017-09-27T05:14:34.419Z,7.23
2017-09-27T05:17:02.793Z,7.47
2017-09-27T05:19:31.899Z,7.60
2017-09-27T05:22:00.242Z,9.15
2017-09-27T05:24:28.616Z,6.93
2017-09-27T05:26:56.957Z,6.10
2017-09-27T05:29:25.353Z,7.10
2017-09-27T05:31:53.695Z,6.15
2017-09-27T05:34:22.832Z,6.00
2017-09-27T05:36:51.960Z,6.87
2017-09-27T05:39:20.328Z,5.67
2017-09-27T05:41:49.468Z,4.93
2017-09-27T05:44:18.601Z,4.57
2017-09-27T05:46:46.932Z,5.43
2017-09-27T05:49:16.032Z,5.60
2017-09-27T05:51:45.160Z,6.50
2017-09-27T05:54:13.497Z,7.27
2017-09-27T05:56:41.880Z,6.77
2017-09-27T05:59:10.224Z,6.90
2017-09-27T06:01:38.568Z,5.00
2017-09-27T06:04:06.944Z,6.33
2017-09-27T06:06:36.049Z,6.47
2017-09-27T06:09:04.428Z,7.00
2017-09-27T06:11:32.777Z,8.20
2017-09-27T06:14:01.115Z,7.27
2017-09-27T06:16:29.489Z,6.47
2017-09-27T06:18:57.827Z,7.53
2017-09-27T06:21:26.960Z,7.50
2017-09-27T06:23:55.291Z,5.60
2017-09-27T06:26:23.632Z,7.47
2017-09-27T06:28:52.008Z,6.53
2017-09-27T06:31:20.360Z,7.00
2017-09-27T06:33:48.840Z,7.50
2017-09-27T06:36:17.944Z,6.60
2017-09-27T06:38:47.080Z,7.13
2017-09-27T06:41:15.428Z,7.10
2017-09-27T06:43:43.767Z,7.93
2017-09-27T06:46:12.132Z,7.60
2017-09-27T06:48:40.472Z,6.80
2017-09-27T06:51:08.837Z,8.00
2017-09-27T06:53:37.944Z,7.23
2017-09-27T06:56:06.296Z,8.25
2017-09-27T06:58:34.677Z,8.43
2017-09-27T07:01:03.008Z,8.10
2017-09-27T07:03:31.376Z,7.23
2017-09-27T07:05:59.707Z,7.45
2017-09-27T07:08:28.043Z,9.37
2017-09-27T07:10:56.404Z,7.87
2017-09-27T07:13:25.508Z,8.20
2017-09-27T07:15:53.876Z,7.50
2017-09-27T07:18:22.976Z,7.90
2017-09-27T07:20:52.083Z,7.03
2017-09-27T07:23:21.216Z,7.87
2017-09-27T07:25:49.587Z,9.70
2017-09-27T07:28:17.919Z,9.30
2017-09-27T07:30:46.258Z,8.83
2017-09-27T07:33:14.628Z,8.32
2017-09-27T07:35:42.995Z,8.63
2017-09-27T07:38:11.392Z,7.47
2017-09-27T07:40:39.736Z,9.10
2017-09-27T07:43:08.886Z,10.40
2017-09-27T07:45:37.233Z,9.37
2017-09-27T07:48:05.597Z,9.37
2017-09-27T07:50:34.704Z,10.77
2017-09-27T07:53:03.044Z,7.60
2017-09-27T07:55:31.403Z,8.67
2017-09-27T07:57:59.744Z,11.47
2017-09-27T08:00:28.112Z,8.53
2017-09-27T08:02:57.216Z,9.40
2017-09-27T08:05:26.320Z,8.98
2017-09-27T08:07:54.681Z,10.30
2017-09-27T08:10:23.788Z,10.07
2017-09-27T08:12:52.964Z,9.50
2017-09-27T08:15:21.304Z,8.93
2017-09-27T08:17:49.642Z,8.63
2017-09-27T08:20:18.763Z,9.80
2017-09-27T08:22:47.095Z,9.47
2017-09-27T08:25:15.475Z,9.23
2017-09-27T08:27:44.059Z,10.90
2017-09-27T08:30:12.407Z,9.55
2017-09-27T08:32:40.767Z,9.47
2017-09-27T08:35:09.160Z,10.73
2017-09-27T08:37:37.528Z,9.27
2017-09-27T08:40:05.864Z,9.85
2017-09-27T08:42:34.209Z,10.03
2017-09-27T08:45:02.572Z,9.63
2017-09-27T08:47:30.909Z,9.40
2017-09-27T08:49:59.623Z,9.90
2017-09-27T08:52:28.721Z,8.50
2017-09-27T08:54:57.816Z,9.07
2017-09-27T08:57:26.940Z,9.10
2017-09-27T08:59:55.295Z,9.17
2017-09-27T09:02:24.434Z,9.33
2017-09-27T09:04:52.784Z,8.93
2017-09-27T09:07:21.885Z,9.43
2017-09-27T09:09:51.028Z,8.47
2017-09-27T09:12:19.365Z,9.67
2017-09-27T09:14:48.497Z,8.80
2017-09-27T09:17:16.842Z,8.20
2017-09-27T09:19:45.235Z,7.97
2017-09-27T09:22:13.601Z,9.82
2017-09-27T09:24:42.699Z,6.93
2017-09-27T09:27:11.820Z,7.80
2017-09-27T09:29:40.153Z,7.70
2017-09-27T09:32:09.245Z,7.22
2017-09-27T09:34:38.205Z,6.90
2017-09-27T09:37:06.540Z,7.57
2017-09-27T09:39:35.675Z,8.20
2017-09-27T09:42:04.024Z,7.53
2017-09-27T09:44:33.153Z,7.73
2017-09-27T09:47:01.486Z,8.70
2017-09-27T09:49:30.597Z,8.10
2017-09-27T09:51:59.732Z,7.83
2017-09-27T09:54:28.076Z,9.70
2017-09-27T09:56:57.196Z,8.97
2017-09-27T09:59:25.535Z,8.00
2017-09-27T10:01:53.896Z,8.00
2017-09-27T10:04:22.233Z,7.77
2017-09-27T10:06:50.568Z,9.33
2017-09-27T10:09:18.927Z,7.03
2017-09-27T10:11:47.262Z,7.50
2017-09-27T10:14:16.396Z,7.67
2017-09-27T10:16:44.729Z,7.13
2017-09-27T10:19:13.832Z,8.47
2017-09-27T10:21:42.964Z,8.50
2017-09-27T10:24:11.303Z,8.63
2017-09-27T10:26:40.423Z,7.05
2017-09-27T10:29:08.752Z,6.73
2017-09-27T10:31:37.101Z,6.50
2017-09-27T10:34:05.475Z,6.73
2017-09-27T10:36:33.818Z,7.43
2017-09-27T10:39:02.949Z,8.40
2017-09-27T10:41:31.271Z,7.20
2017-09-27T10:43:59.605Z,7.23
2017-09-27T10:46:27.978Z,7.60
2017-09-27T10:48:56.309Z,6.07
2017-09-27T10:51:24.677Z,7.07
2017-09-27T10:53:53.019Z,6.30
2017-09-27T10:56:21.359Z,7.03
2017-09-27T10:58:49.720Z,6.72
2017-09-27T11:01:18.052Z,6.13
2017-09-27T11:03:47.188Z,6.20
2017-09-27T11:06:15.524Z,6.00
2017-09-27T11:08:44.636Z,6.93
2017-09-27T11:11:12.992Z,6.43
2017-09-27T11:13:42.119Z,6.07
2017-09-27T11:16:10.519Z,6.22
2017-09-27T11:18:38.843Z,6.47
2017-09-27T11:21:07.173Z,6.57
2017-09-27T11:23:35.535Z,5.33
2017-09-27T11:26:03.869Z,7.27
2017-09-27T11:28:32.232Z,7.43
2017-09-27T11:31:00.561Z,5.90
2017-09-27T11:33:29.661Z,6.00
2017-09-27T11:35:58.794Z,6.10
2017-09-27T11:38:27.908Z,4.90
2017-09-27T11:40:56.268Z,5.93
2017-09-27T11:43:24.594Z,7.00
2017-09-27T11:45:52.928Z,5.00
2017-09-27T11:48:21.288Z,5.43
2017-09-27T11:50:49.626Z,5.47
2017-09-27T11:53:17.992Z,4.57
2017-09-27T11:55:46.330Z,4.30
2017-09-27T11:58:14.665Z,3.10
2017-09-27T12:00:43.022Z,3.60
2017-09-27T12:03:11.353Z,3.93
2017-09-27T12:05:40.481Z,2.80
2017-09-27T12:08:08.809Z,3.07
2017-09-27T12:10:37.144Z,2.60
2017-09-27T12:13:05.504Z,2.33
2017-09-27T12:15:34.612Z,3.07
2017-09-27T12:18:04.384Z,3.00
2017-09-27T12:20:32.714Z,3.40
2017-09-27T12:23:01.076Z,4.00
2017-09-27T12:25:30.172Z,3.10
2017-09-27T12:27:59.275Z,3.27
2017-09-27T12:30:27.639Z,2.90
2017-09-27T12:32:56.750Z,2.40
2017-09-27T12:35:25.872Z,2.57
2017-09-27T12:37:54.210Z,2.70
2017-09-27T12:40:23.335Z,2.50
2017-09-27T12:42:51.700Z,2.20
2017-09-27T12:45:20.795Z,2.50
2017-09-27T12:47:49.926Z,2.60
2017-09-27T12:50:18.255Z,3.03
2017-09-27T12:52:46.584Z,2.80
2017-09-27T12:55:14.944Z,2.97
2017-09-27T12:57:44.044Z,2.80
2017-09-27T13:00:12.384Z,2.42
2017-09-27T13:02:40.760Z,2.40
2017-09-27T13:05:09.091Z,2.70
2017-09-27T13:07:37.457Z,2.77
2017-09-27T13:10:06.556Z,2.80
2017-09-27T13:12:35.656Z,2.10
2017-09-27T13:15:04.781Z,2.20
2017-09-27T13:17:33.116Z,2.70
2017-09-27T13:20:02.246Z,2.90
2017-09-27T13:22:30.579Z,3.13
2017-09-27T13:24:58.914Z,2.60
2017-09-27T13:27:27.282Z,2.67
2017-09-27T13:29:55.625Z,2.70
2017-09-27T13:32:23.988Z,3.20
2017-09-27T13:34:52.311Z,2.63
2017-09-27T13:37:21.412Z,3.03
2017-09-27T13:39:50.534Z,2.23
2017-09-27T13:42:18.896Z,2.20
2017-09-27T13:44:48.032Z,2.13
2017-09-27T13:47:16.359Z,2.20
2017-09-27T13:49:45.460Z,2.33
2017-09-27T13:52:14.611Z,2.43
2017-09-27T13:54:42.940Z,2.57
2017-09-27T13:57:12.074Z,2.37
2017-09-27T13:59:40.404Z,2.60
2017-09-27T14:02:08.732Z,2.97
2017-09-27T14:04:37.085Z,2.40
2017-09-27T14:07:05.424Z,3.17
2017-09-27T14:09:33.802Z,2.80
2017-09-27T14:12:02.140Z,3.20
2017-09-27T14:14:30.471Z,2.97
2017-09-27T14:16:58.823Z,3.17
2017-09-27T14:19:27.167Z,3.80
2017-09-27T14:21:56.312Z,3.20
2017-09-27T14:24:24.841Z,3.40
2017-09-27T14:26:53.936Z,4.23
2017-09-27T14:29:23.067Z,3.47
2017-09-27T14:31:51.404Z,4.60
2017-09-27T14:34:19.769Z,3.85
2017-09-27T14:36:48.104Z,3.70
2017-09-27T14:39:16.439Z,4.10
2017-09-27T14:41:44.865Z,3.30
2017-09-27T14:44:13.201Z,3.17
2017-09-27T14:46:41.564Z,3.55
2017-09-27T14:49:09.903Z,4.00
2017-09-27T14:51:38.240Z,4.07
2017-09-27T14:54:06.620Z,3.80
2017-09-27T14:56:35.728Z,4.03
2017-09-27T14:59:04.860Z,4.10
2017-09-27T15:01:33.210Z,4.03
2017-09-27T15:04:02.351Z,3.75
2017-09-27T15:06:30.688Z,3.53
2017-09-27T15:08:59.804Z,4.00
2017-09-27T15:11:28.929Z,4.57
2017-09-27T15:13:57.273Z,4.17
2017-09-27T15:16:26.416Z,4.77
2017-09-27T15:18:54.750Z,4.07
2017-09-27T15:21:23.108Z,4.00
2017-09-27T15:23:51.474Z,4.90
2017-09-27T15:26:19.827Z,3.83
2017-09-27T15:28:48.187Z,3.60
2017-09-27T15:31:16.528Z,4.30
2017-09-27T15:33:44.878Z,3.73
2017-09-27T15:36:14.294Z,4.60
2017-09-27T15:38:43.410Z,4.90
2017-09-27T15:41:11.790Z,4.17
2017-09-27T15:43:40.136Z,4.63
2017-09-27T15:46:08.516Z,4.30
2017-09-27T15:48:36.875Z,3.97
2017-09-27T15:51:05.243Z,5.13
2017-09-27T15:53:34.344Z,5.27
2017-09-27T15:56:03.461Z,5.13
2017-09-27T15:58:31.828Z,4.93
2017-09-27T16:01:00.170Z,4.93
2017-09-27T16:03:28.525Z,6.57
2017-09-27T16:05:56.865Z,6.30
2017-09-27T16:08:25.994Z,6.20
2017-09-27T16:10:54.348Z,6.20
2017-09-27T16:13:22.726Z,6.20
2017-09-27T16:15:51.833Z,5.67
2017-09-27T16:18:20.169Z,6.33
2017-09-27T16:20:48.614Z,6.00
2017-09-27T16:23:16.950Z,5.50
2017-09-27T16:25:46.076Z,6.03
2017-09-27T16:28:14.420Z,6.17
2017-09-27T16:30:42.761Z,5.97
2017-09-27T16:33:11.142Z,6.23
2017-09-27T16:35:39.486Z,6.00
2017-09-27T16:38:07.848Z,5.83
2017-09-27T16:40:36.948Z,5.65
2017-09-27T16:43:06.045Z,6.50
2017-09-27T16:45:35.172Z,5.57
2017-09-27T16:48:03.504Z,5.50
2017-09-27T16:50:31.864Z,5.12
2017-09-27T16:53:00.192Z,7.23
2017-09-27T16:55:29.299Z,8.63
2017-09-27T16:57:58.436Z,8.83
2017-09-27T17:00:26.777Z,7.80
2017-09-27T17:02:55.156Z,7.23
2017-09-27T17:05:24.260Z,7.67
2017-09-27T17:07:52.613Z,6.77
2017-09-27T17:10:21.749Z,7.40
2017-09-27T17:12:50.087Z,8.27
2017-09-27T17:15:18.468Z,8.03
2017-09-27T17:17:46.809Z,8.00
2017-09-27T17:20:15.153Z,6.80
2017-09-27T17:22:44.288Z,7.05
2017-09-27T17:25:12.640Z,8.27
2017-09-27T17:27:41.004Z,7.23
2017-09-27T17:30:10.105Z,6.67
2017-09-27T17:32:39.221Z,7.43
2017-09-27T17:35:07.609Z,7.97
2017-09-27T17:37:35.965Z,6.33
2017-09-27T17:40:05.108Z,7.83
2017-09-27T17:42:33.493Z,7.00
2017-09-27T17:45:01.812Z,6.60
2017-09-27T17:47:30.176Z,9.40
2017-09-27T17:49:58.524Z,8.47
2017-09-27T17:52:26.913Z,9.63
2017-09-27T17:54:55.270Z,7.80
2017-09-27T17:57:23.620Z,10.02
2017-09-27T17:59:52.759Z,8.77
2017-09-27T18:02:21.620Z,9.50
2017-09-27T18:04:56.205Z,8.90
2017-09-27T18:07:30.144Z,8.90
2017-09-27T18:23:22.946Z,9.67
2017-09-27T18:25:51.301Z,9.10
2017-09-27T18:28:19.668Z,9.20
2017-09-27T18:30:48.780Z,11.27
2017-09-27T18:33:17.120Z,9.20
2017-09-27T18:35:45.676Z,8.83
2017-09-27T18:38:14.048Z,8.70
2017-09-27T18:40:42.414Z,8.20
2017-09-27T18:43:10.758Z,10.17
2017-09-27T18:45:39.128Z,11.30
2017-09-27T18:48:07.473Z,8.93
2017-09-27T18:50:35.828Z,9.55
2017-09-27T18:53:04.194Z,7.40
2017-09-27T18:55:32.565Z,7.78
2017-09-27T18:58:01.708Z,8.30
2017-09-27T19:00:30.057Z,7.57
2017-09-27T19:02:59.168Z,7.93
2017-09-27T19:05:27.545Z,7.97
2017-09-27T19:07:55.905Z,7.83
2017-09-27T19:10:25.529Z,8.80
2017-09-27T19:12:53.954Z,7.60
2017-09-27T19:15:22.337Z,8.93
2017-09-27T19:17:50.724Z,7.93
2017-09-27T19:20:19.128Z,9.23
2017-09-27T19:22:47.509Z,7.40
2017-09-27T19:25:15.859Z,7.70
2017-09-27T19:27:44.198Z,7.00
2017-09-27T19:30:12.580Z,8.37
2017-09-27T19:32:41.138Z,7.70
2017-09-27T19:35:09.669Z,6.70
2017-09-27T19:37:38.098Z,7.10
2017-09-27T19:40:07.085Z,6.83
2017-09-27T19:42:36.430Z,10.02
2017-09-27T19:45:04.919Z,8.93
2017-09-27T19:47:33.569Z,10.90
2017-09-27T19:50:02.138Z,9.70
2017-09-27T19:52:30.671Z,7.77
2017-09-27T19:54:59.241Z,7.23
2017-09-27T19:57:28.477Z,7.23
2017-09-27T19:59:56.922Z,7.63
2017-09-27T20:02:27.300Z,8.93
2017-09-27T20:04:55.845Z,6.97
2017-09-27T20:07:24.495Z,8.80
2017-09-27T20:09:53.980Z,7.70
2017-09-27T20:12:22.477Z,8.33
2017-09-27T20:14:50.928Z,9.63
2017-09-27T20:17:19.410Z,7.47
2017-09-27T20:19:48.225Z,7.53
2017-09-27T20:22:16.751Z,7.17
2017-09-27T20:24:45.537Z,6.30
2017-09-27T20:27:14.648Z,6.40
2017-09-27T20:29:43.800Z,6.70
2017-09-27T20:32:12.143Z,7.80
2017-09-27T20:34:40.522Z,6.82
2017-09-27T20:37:08.887Z,7.13
2017-09-27T20:39:37.993Z,7.00
2017-09-27T20:42:07.309Z,6.80
2017-09-27T20:44:35.727Z,6.72
2017-09-27T20:47:04.124Z,6.80
2017-09-27T20:49:32.505Z,7.25
2017-09-27T20:52:00.852Z,6.87
2017-09-27T20:54:29.225Z,8.50
2017-09-27T20:56:57.568Z,9.07
2017-09-27T20:59:26.672Z,8.10
2017-09-27T21:01:55.820Z,6.73
2017-09-27T21:04:25.529Z,7.03
2017-09-27T21:06:53.916Z,6.40
2017-09-27T21:09:22.245Z,7.30
2017-09-27T21:11:51.356Z,6.15
2017-09-27T21:14:19.720Z,8.05
2017-09-27T21:16:48.826Z,8.10
2017-09-27T21:19:17.958Z,8.63
2017-09-27T21:21:46.296Z,8.50
2017-09-27T21:24:15.414Z,10.50
2017-09-27T21:26:43.786Z,7.93
2017-09-27T21:29:12.899Z,7.20
2017-09-27T21:31:41.284Z,8.70
2017-09-27T21:34:09.660Z,7.73
2017-09-27T21:36:38.017Z,7.93
2017-09-27T21:39:06.391Z,6.93
2017-09-27T21:41:35.508Z,7.50
2017-09-27T21:44:03.890Z,7.63
2017-09-27T21:46:33.014Z,7.00
2017-09-27T21:49:02.137Z,7.80
2017-09-27T21:51:30.514Z,7.23
2017-09-27T21:53:58.847Z,6.53
2017-09-27T21:56:28.012Z,7.57
2017-09-27T21:58:56.573Z,7.93
2017-09-27T22:01:24.912Z,7.10
2017-09-27T22:03:54.050Z,8.83
2017-09-27T22:06:22.401Z,10.17
2017-09-27T22:08:50.768Z,10.52
2017-09-27T22:11:20.044Z,12.77
2017-09-27T22:13:48.422Z,9.90
2017-09-27T22:16:16.764Z,9.90
2017-09-27T22:18:45.148Z,11.35
2017-09-27T22:21:13.494Z,9.40
2017-09-27T22:23:42.603Z,11.40
2017-09-27T22:26:10.994Z,11.87
2017-09-27T22:28:39.328Z,9.90
2017-09-27T22:31:07.721Z,16.00
2017-09-27T22:33:36.860Z,13.70
2017-09-27T22:36:05.204Z,7.93
2017-09-27T22:38:34.338Z,8.67
2017-09-27T22:41:02.688Z,7.20
2017-09-27T22:43:31.829Z,8.80
2017-09-27T22:46:00.160Z,6.17
2017-09-27T22:48:29.370Z,10.00
2017-09-27T22:50:58.500Z,7.03
2017-09-27T22:53:26.828Z,5.70
2017-09-27T22:55:55.195Z,7.37
2017-09-27T22:58:23.543Z,6.07
2017-09-27T23:00:51.897Z,16.63
2017-09-27T23:03:20.281Z,10.90
2017-09-27T23:05:48.638Z,10.25
2017-09-27T23:08:17.791Z,8.77
2017-09-27T23:10:46.144Z,8.50
2017-09-27T23:13:14.490Z,7.97
2017-09-27T23:15:43.628Z,8.67
2017-09-27T23:18:11.968Z,9.50
2017-09-27T23:20:41.099Z,6.72
2017-09-27T23:23:09.439Z,8.83
2017-09-27T23:25:37.788Z,7.73
2017-09-27T23:28:06.150Z,9.13
2017-09-27T23:30:34.507Z,8.53
2017-09-27T23:33:03.642Z,7.00
2017-09-27T23:35:31.983Z,7.20
2017-09-27T23:38:01.072Z,6.30
2017-09-27T23:40:30.196Z,6.37
2017-09-27T23:42:58.523Z,6.00
2017-09-27T23:45:26.885Z,6.80
2017-09-27T23:47:55.220Z,8.67
2017-09-27T23:50:24.320Z,11.63
2017-09-27T23:52:53.448Z,6.50
2017-09-27T23:55:21.782Z,6.43
2017-09-27T23:57:50.931Z,5.90
